sensor_id;sensor_type;location;lat;lon;timestamp;P1;durP1;ratioP1;P2;durP2;ratioP2
63005;SDS011;53704;52.532;6.426;2023-07-29T00:00:41;8.90;;;6.82;;
63005;SDS011;53704;52.532;6.426;2023-07-29T00:03:08;7.93;;;7.15;;
63005;SDS011;53704;52.532;6.426;2023-07-29T00:05:33;6.97;;;6.45;;
63005;SDS011;53704;52.532;6.426;2023-07-29T00:07:59;7.00;;;6.60;;
63005;SDS011;53704;52.532;6.426;2023-07-29T00:10:24;6.82;;;6.18;;
63005;SDS011;53704;52.532;6.426;2023-07-29T00:12:49;6.72;;;6.22;;
63005;SDS011;53704;52.532;6.426;2023-07-29T00:15:15;7.32;;;6.63;;
63005;SDS011;53704;52.532;6.426;2023-07-29T00:17:40;6.57;;;6.10;;
63005;SDS011;53704;52.532;6.426;2023-07-29T00:20:06;7.93;;;6.15;;
63005;SDS011;53704;52.532;6.426;2023-07-29T00:22:32;9.80;;;6.90;;
63005;SDS011;53704;52.532;6.426;2023-07-29T00:24:58;6.50;;;6.10;;
63005;SDS011;53704;52.532;6.426;2023-07-29T00:27:24;6.68;;;5.90;;
63005;SDS011;53704;52.532;6.426;2023-07-29T00:29:50;9.95;;;5.93;;
63005;SDS011;53704;52.532;6.426;2023-07-29T00:32:15;8.50;;;6.68;;
63005;SDS011;53704;52.532;6.426;2023-07-29T00:34:41;7.93;;;6.32;;
63005;SDS011;53704;52.532;6.426;2023-07-29T00:37:06;8.30;;;6.90;;
63005;SDS011;53704;52.532;6.426;2023-07-29T00:39:32;7.70;;;7.00;;
63005;SDS011;53704;52.532;6.426;2023-07-29T00:41:57;12.10;;;7.38;;
63005;SDS011;53704;52.532;6.426;2023-07-29T00:44:23;8.88;;;8.02;;
63005;SDS011;53704;52.532;6.426;2023-07-29T00:46:49;8.15;;;7.45;;
63005;SDS011;53704;52.532;6.426;2023-07-29T00:49:17;9.35;;;7.18;;
63005;SDS011;53704;52.532;6.426;2023-07-29T00:51:43;9.48;;;8.57;;
63005;SDS011;53704;52.532;6.426;2023-07-29T00:54:08;11.27;;;8.25;;
63005;SDS011;53704;52.532;6.426;2023-07-29T00:56:34;8.77;;;7.88;;
63005;SDS011;53704;52.532;6.426;2023-07-29T00:59:00;10.50;;;8.63;;
63005;SDS011;53704;52.532;6.426;2023-07-29T01:01:27;13.75;;;9.10;;
63005;SDS011;53704;52.532;6.426;2023-07-29T01:03:54;13.05;;;8.00;;
63005;SDS011;53704;52.532;6.426;2023-07-29T01:12:19;12.73;;;8.95;;
63005;SDS011;53704;52.532;6.426;2023-07-29T01:14:59;9.43;;;8.63;;
63005;SDS011;53704;52.532;6.426;2023-07-29T01:20:29;9.80;;;8.55;;
63005;SDS011;53704;52.532;6.426;2023-07-29T01:22:58;8.90;;;8.10;;
63005;SDS011;53704;52.532;6.426;2023-07-29T01:25:23;10.90;;;7.93;;
63005;SDS011;53704;52.532;6.426;2023-07-29T01:27:49;8.52;;;7.88;;
63005;SDS011;53704;52.532;6.426;2023-07-29T01:30:18;7.90;;;7.20;;
63005;SDS011;53704;52.532;6.426;2023-07-29T01:32:58;8.25;;;7.45;;
63005;SDS011;53704;52.532;6.426;2023-07-29T01:35:33;7.70;;;6.78;;
63005;SDS011;53704;52.532;6.426;2023-07-29T01:38:27;6.68;;;6.28;;
63005;SDS011;53704;52.532;6.426;2023-07-29T01:43:22;6.40;;;5.95;;
63005;SDS011;53704;52.532;6.426;2023-07-29T01:45:50;5.80;;;5.40;;
63005;SDS011;53704;52.532;6.426;2023-07-29T01:48:16;6.15;;;5.70;;
63005;SDS011;53704;52.532;6.426;2023-07-29T01:50:42;6.00;;;5.20;;
63005;SDS011;53704;52.532;6.426;2023-07-29T01:53:08;5.43;;;4.90;;
63005;SDS011;53704;52.532;6.426;2023-07-29T01:55:33;4.70;;;4.35;;
63005;SDS011;53704;52.532;6.426;2023-07-29T01:57:58;5.75;;;4.65;;
63005;SDS011;53704;52.532;6.426;2023-07-29T02:00:24;4.57;;;4.13;;
63005;SDS011;53704;52.532;6.426;2023-07-29T02:02:49;8.68;;;3.33;;
63005;SDS011;53704;52.532;6.426;2023-07-29T02:05:15;7.55;;;2.90;;
63005;SDS011;53704;52.532;6.426;2023-07-29T02:07:40;7.65;;;3.30;;
63005;SDS011;53704;52.532;6.426;2023-07-29T02:10:06;4.35;;;3.13;;
63005;SDS011;53704;52.532;6.426;2023-07-29T02:12:32;7.88;;;3.03;;
63005;SDS011;53704;52.532;6.426;2023-07-29T02:14:58;3.65;;;2.97;;
63005;SDS011;53704;52.532;6.426;2023-07-29T02:17:23;11.30;;;3.10;;
63005;SDS011;53704;52.532;6.426;2023-07-29T02:19:48;2.55;;;2.30;;
63005;SDS011;53704;52.532;6.426;2023-07-29T02:22:17;2.63;;;2.42;;
63005;SDS011;53704;52.532;6.426;2023-07-29T02:24:43;3.15;;;2.63;;
63005;SDS011;53704;52.532;6.426;2023-07-29T02:27:09;3.67;;;2.47;;
63005;SDS011;53704;52.532;6.426;2023-07-29T02:29:35;4.63;;;2.10;;
63005;SDS011;53704;52.532;6.426;2023-07-29T02:32:01;4.43;;;2.30;;
63005;SDS011;53704;52.532;6.426;2023-07-29T02:34:27;3.33;;;2.35;;
63005;SDS011;53704;52.532;6.426;2023-07-29T02:36:52;4.18;;;2.17;;
63005;SDS011;53704;52.532;6.426;2023-07-29T02:39:18;5.35;;;2.15;;
63005;SDS011;53704;52.532;6.426;2023-07-29T02:41:43;2.15;;;2.05;;
63005;SDS011;53704;52.532;6.426;2023-07-29T02:44:09;2.92;;;2.35;;
63005;SDS011;53704;52.532;6.426;2023-07-29T02:46:34;2.22;;;2.13;;
63005;SDS011;53704;52.532;6.426;2023-07-29T02:49:01;2.95;;;2.53;;
63005;SDS011;53704;52.532;6.426;2023-07-29T02:51:27;3.53;;;2.80;;
63005;SDS011;53704;52.532;6.426;2023-07-29T02:53:53;3.42;;;2.90;;
63005;SDS011;53704;52.532;6.426;2023-07-29T02:56:18;3.00;;;2.80;;
63005;SDS011;53704;52.532;6.426;2023-07-29T02:58:44;3.50;;;2.80;;
63005;SDS011;53704;52.532;6.426;2023-07-29T03:01:09;3.03;;;2.83;;
63005;SDS011;53704;52.532;6.426;2023-07-29T03:03:35;3.35;;;2.78;;
63005;SDS011;53704;52.532;6.426;2023-07-29T03:06:07;3.17;;;2.97;;
63005;SDS011;53704;52.532;6.426;2023-07-29T03:08:34;3.08;;;2.90;;
63005;SDS011;53704;52.532;6.426;2023-07-29T03:11:10;5.40;;;3.22;;
63005;SDS011;53704;52.532;6.426;2023-07-29T03:13:37;3.85;;;2.75;;
63005;SDS011;53704;52.532;6.426;2023-07-29T03:16:12;5.20;;;3.47;;
63005;SDS011;53704;52.532;6.426;2023-07-29T03:18:42;16.73;;;3.72;;
63005;SDS011;53704;52.532;6.426;2023-07-29T03:21:08;3.63;;;3.28;;
63005;SDS011;53704;52.532;6.426;2023-07-29T03:23:34;4.53;;;3.45;;
63005;SDS011;53704;52.532;6.426;2023-07-29T03:26:01;5.40;;;2.60;;
63005;SDS011;53704;52.532;6.426;2023-07-29T03:28:34;5.00;;;3.17;;
63005;SDS011;53704;52.532;6.426;2023-07-29T03:31:01;7.38;;;4.28;;
63005;SDS011;53704;52.532;6.426;2023-07-29T03:33:27;3.38;;;3.05;;
63005;SDS011;53704;52.532;6.426;2023-07-29T03:35:52;2.80;;;2.70;;
63005;SDS011;53704;52.532;6.426;2023-07-29T03:38:18;9.30;;;2.60;;
63005;SDS011;53704;52.532;6.426;2023-07-29T03:40:44;3.22;;;2.92;;
63005;SDS011;53704;52.532;6.426;2023-07-29T03:43:09;5.20;;;3.05;;
63005;SDS011;53704;52.532;6.426;2023-07-29T03:45:35;2.88;;;2.67;;
63005;SDS011;53704;52.532;6.426;2023-07-29T03:48:01;4.32;;;3.13;;
63005;SDS011;53704;52.532;6.426;2023-07-29T03:50:28;6.72;;;2.58;;
63005;SDS011;53704;52.532;6.426;2023-07-29T03:52:54;5.10;;;2.63;;
63005;SDS011;53704;52.532;6.426;2023-07-29T03:55:20;8.85;;;3.47;;
63005;SDS011;53704;52.532;6.426;2023-07-29T03:57:45;6.63;;;3.25;;
63005;SDS011;53704;52.532;6.426;2023-07-29T04:00:11;3.17;;;2.97;;
63005;SDS011;53704;52.532;6.426;2023-07-29T04:02:37;4.40;;;2.80;;
63005;SDS011;53704;52.532;6.426;2023-07-29T04:05:03;5.97;;;2.88;;
63005;SDS011;53704;52.532;6.426;2023-07-29T04:07:29;3.40;;;3.10;;
63005;SDS011;53704;52.532;6.426;2023-07-29T04:09:55;5.30;;;3.33;;
63005;SDS011;53704;52.532;6.426;2023-07-29T04:12:21;3.35;;;3.05;;
63005;SDS011;53704;52.532;6.426;2023-07-29T04:14:47;4.82;;;3.20;;
63005;SDS011;53704;52.532;6.426;2023-07-29T04:17:13;5.20;;;3.42;;
63005;SDS011;53704;52.532;6.426;2023-07-29T04:19:38;7.68;;;3.47;;
63005;SDS011;53704;52.532;6.426;2023-07-29T04:22:03;5.78;;;3.70;;
63005;SDS011;53704;52.532;6.426;2023-07-29T04:24:29;7.15;;;3.95;;
63005;SDS011;53704;52.532;6.426;2023-07-29T04:26:54;5.45;;;4.15;;
63005;SDS011;53704;52.532;6.426;2023-07-29T04:29:20;5.95;;;4.28;;
63005;SDS011;53704;52.532;6.426;2023-07-29T04:31:47;4.57;;;4.18;;
63005;SDS011;53704;52.532;6.426;2023-07-29T04:34:13;6.45;;;4.90;;
63005;SDS011;53704;52.532;6.426;2023-07-29T04:36:38;5.47;;;4.93;;
63005;SDS011;53704;52.532;6.426;2023-07-29T04:39:04;5.40;;;4.90;;
63005;SDS011;53704;52.532;6.426;2023-07-29T04:41:29;5.68;;;4.75;;
63005;SDS011;53704;52.532;6.426;2023-07-29T04:43:55;11.45;;;5.78;;
63005;SDS011;53704;52.532;6.426;2023-07-29T04:46:20;12.18;;;5.68;;
63005;SDS011;53704;52.532;6.426;2023-07-29T04:48:45;8.63;;;5.47;;
63005;SDS011;53704;52.532;6.426;2023-07-29T04:51:11;9.13;;;6.15;;
63005;SDS011;53704;52.532;6.426;2023-07-29T04:53:36;11.73;;;6.10;;
63005;SDS011;53704;52.532;6.426;2023-07-29T04:56:02;8.80;;;4.93;;
63005;SDS011;53704;52.532;6.426;2023-07-29T04:58:28;8.95;;;6.50;;
63005;SDS011;53704;52.532;6.426;2023-07-29T05:00:55;11.43;;;6.40;;
63005;SDS011;53704;52.532;6.426;2023-07-29T05:03:20;10.30;;;6.78;;
63005;SDS011;53704;52.532;6.426;2023-07-29T05:05:46;8.25;;;6.65;;
63005;SDS011;53704;52.532;6.426;2023-07-29T05:08:11;7.78;;;6.00;;
63005;SDS011;53704;52.532;6.426;2023-07-29T05:10:37;6.20;;;5.63;;
63005;SDS011;53704;52.532;6.426;2023-07-29T05:13:02;11.10;;;6.10;;
63005;SDS011;53704;52.532;6.426;2023-07-29T05:15:28;12.55;;;6.70;;
63005;SDS011;53704;52.532;6.426;2023-07-29T05:17:53;10.05;;;6.13;;
63005;SDS011;53704;52.532;6.426;2023-07-29T05:20:18;9.25;;;6.25;;
63005;SDS011;53704;52.532;6.426;2023-07-29T05:22:44;8.15;;;5.30;;
63005;SDS011;53704;52.532;6.426;2023-07-29T05:25:09;11.45;;;6.88;;
63005;SDS011;53704;52.532;6.426;2023-07-29T05:27:35;6.75;;;6.15;;
63005;SDS011;53704;52.532;6.426;2023-07-29T05:30:00;8.25;;;6.57;;
63005;SDS011;53704;52.532;6.426;2023-07-29T05:32:26;9.43;;;6.68;;
63005;SDS011;53704;52.532;6.426;2023-07-29T05:34:51;9.10;;;5.97;;
63005;SDS011;53704;52.532;6.426;2023-07-29T05:37:16;9.95;;;6.40;;
63005;SDS011;53704;52.532;6.426;2023-07-29T05:39:42;10.25;;;6.75;;
63005;SDS011;53704;52.532;6.426;2023-07-29T05:42:07;9.57;;;6.45;;
63005;SDS011;53704;52.532;6.426;2023-07-29T05:44:33;10.95;;;6.45;;
63005;SDS011;53704;52.532;6.426;2023-07-29T05:46:58;9.07;;;6.57;;
63005;SDS011;53704;52.532;6.426;2023-07-29T05:49:24;8.93;;;7.07;;
63005;SDS011;53704;52.532;6.426;2023-07-29T05:51:49;9.45;;;6.20;;
63005;SDS011;53704;52.532;6.426;2023-07-29T05:54:17;10.45;;;6.03;;
63005;SDS011;53704;52.532;6.426;2023-07-29T05:56:43;8.55;;;5.93;;
63005;SDS011;53704;52.532;6.426;2023-07-29T05:59:09;14.45;;;5.88;;
63005;SDS011;53704;52.532;6.426;2023-07-29T06:01:34;6.30;;;5.78;;
63005;SDS011;53704;52.532;6.426;2023-07-29T06:04:00;7.50;;;6.18;;
63005;SDS011;53704;52.532;6.426;2023-07-29T06:06:25;11.52;;;5.45;;
63005;SDS011;53704;52.532;6.426;2023-07-29T06:08:51;5.78;;;5.20;;
63005;SDS011;53704;52.532;6.426;2023-07-29T06:11:16;8.18;;;5.07;;
63005;SDS011;53704;52.532;6.426;2023-07-29T06:13:42;7.80;;;5.88;;
63005;SDS011;53704;52.532;6.426;2023-07-29T06:16:07;7.20;;;5.25;;
63005;SDS011;53704;52.532;6.426;2023-07-29T06:18:33;5.65;;;5.13;;
63005;SDS011;53704;52.532;6.426;2023-07-29T06:20:58;7.40;;;4.85;;
63005;SDS011;53704;52.532;6.426;2023-07-29T06:23:24;6.72;;;6.00;;
63005;SDS011;53704;52.532;6.426;2023-07-29T06:25:49;10.13;;;4.80;;
63005;SDS011;53704;52.532;6.426;2023-07-29T06:28:14;11.60;;;5.63;;
63005;SDS011;53704;52.532;6.426;2023-07-29T06:30:40;6.97;;;5.25;;
63005;SDS011;53704;52.532;6.426;2023-07-29T06:33:05;5.72;;;5.07;;
63005;SDS011;53704;52.532;6.426;2023-07-29T06:35:31;7.95;;;5.28;;
63005;SDS011;53704;52.532;6.426;2023-07-29T06:37:57;13.70;;;5.80;;
63005;SDS011;53704;52.532;6.426;2023-07-29T06:40:22;5.25;;;4.85;;
63005;SDS011;53704;52.532;6.426;2023-07-29T06:42:47;8.52;;;5.03;;
63005;SDS011;53704;52.532;6.426;2023-07-29T06:45:13;5.22;;;4.72;;
63005;SDS011;53704;52.532;6.426;2023-07-29T06:47:40;8.07;;;5.20;;
63005;SDS011;53704;52.532;6.426;2023-07-29T06:50:06;10.70;;;5.53;;
63005;SDS011;53704;52.532;6.426;2023-07-29T06:52:32;8.25;;;5.25;;
63005;SDS011;53704;52.532;6.426;2023-07-29T06:54:57;5.43;;;4.97;;
63005;SDS011;53704;52.532;6.426;2023-07-29T06:57:23;10.82;;;5.45;;
63005;SDS011;53704;52.532;6.426;2023-07-29T06:59:48;6.28;;;4.88;;
63005;SDS011;53704;52.532;6.426;2023-07-29T07:02:14;6.60;;;4.90;;
63005;SDS011;53704;52.532;6.426;2023-07-29T07:04:39;8.48;;;5.18;;
63005;SDS011;53704;52.532;6.426;2023-07-29T07:07:05;9.05;;;4.57;;
63005;SDS011;53704;52.532;6.426;2023-07-29T07:09:30;6.07;;;4.88;;
63005;SDS011;53704;52.532;6.426;2023-07-29T07:11:56;8.20;;;4.38;;
63005;SDS011;53704;52.532;6.426;2023-07-29T07:14:21;5.65;;;4.10;;
63005;SDS011;53704;52.532;6.426;2023-07-29T07:16:46;8.82;;;4.88;;
63005;SDS011;53704;52.532;6.426;2023-07-29T07:19:12;5.07;;;4.20;;
63005;SDS011;53704;52.532;6.426;2023-07-29T07:21:37;12.13;;;4.55;;
63005;SDS011;53704;52.532;6.426;2023-07-29T07:24:03;5.10;;;4.60;;
63005;SDS011;53704;52.532;6.426;2023-07-29T07:26:28;5.50;;;3.78;;
63005;SDS011;53704;52.532;6.426;2023-07-29T07:28:54;6.07;;;3.67;;
63005;SDS011;53704;52.532;6.426;2023-07-29T07:31:19;10.02;;;3.90;;
63005;SDS011;53704;52.532;6.426;2023-07-29T07:33:44;16.48;;;5.28;;
63005;SDS011;53704;52.532;6.426;2023-07-29T07:36:10;12.48;;;4.03;;
63005;SDS011;53704;52.532;6.426;2023-07-29T07:38:35;6.10;;;3.88;;
63005;SDS011;53704;52.532;6.426;2023-07-29T07:41:01;7.88;;;3.80;;
63005;SDS011;53704;52.532;6.426;2023-07-29T07:43:27;8.52;;;3.63;;
63005;SDS011;53704;52.532;6.426;2023-07-29T07:45:59;5.05;;;3.38;;
63005;SDS011;53704;52.532;6.426;2023-07-29T07:48:29;5.75;;;3.30;;
63005;SDS011;53704;52.532;6.426;2023-07-29T07:50:54;7.57;;;4.22;;
63005;SDS011;53704;52.532;6.426;2023-07-29T07:53:20;9.00;;;3.67;;
63005;SDS011;53704;52.532;6.426;2023-07-29T07:55:46;9.13;;;3.83;;
63005;SDS011;53704;52.532;6.426;2023-07-29T07:58:12;5.32;;;3.58;;
63005;SDS011;53704;52.532;6.426;2023-07-29T08:00:37;3.00;;;2.80;;
63005;SDS011;53704;52.532;6.426;2023-07-29T08:03:03;3.88;;;2.88;;
63005;SDS011;53704;52.532;6.426;2023-07-29T08:05:28;9.07;;;2.90;;
63005;SDS011;53704;52.532;6.426;2023-07-29T08:07:54;4.75;;;2.38;;
63005;SDS011;53704;52.532;6.426;2023-07-29T08:10:19;2.85;;;2.55;;
63005;SDS011;53704;52.532;6.426;2023-07-29T08:12:45;3.63;;;2.33;;
63005;SDS011;53704;52.532;6.426;2023-07-29T08:15:10;11.02;;;3.00;;
63005;SDS011;53704;52.532;6.426;2023-07-29T08:17:36;6.53;;;2.75;;
63005;SDS011;53704;52.532;6.426;2023-07-29T08:20:01;3.08;;;2.17;;
63005;SDS011;53704;52.532;6.426;2023-07-29T08:22:26;6.13;;;2.25;;
63005;SDS011;53704;52.532;6.426;2023-07-29T08:24:52;6.47;;;2.88;;
63005;SDS011;53704;52.532;6.426;2023-07-29T08:27:17;3.17;;;2.63;;
63005;SDS011;53704;52.532;6.426;2023-07-29T08:29:43;6.30;;;2.58;;
63005;SDS011;53704;52.532;6.426;2023-07-29T08:32:08;5.18;;;2.13;;
63005;SDS011;53704;52.532;6.426;2023-07-29T08:34:34;5.32;;;2.55;;
63005;SDS011;53704;52.532;6.426;2023-07-29T08:36:59;7.80;;;2.70;;
63005;SDS011;53704;52.532;6.426;2023-07-29T08:39:25;6.13;;;3.13;;
63005;SDS011;53704;52.532;6.426;2023-07-29T08:41:57;5.55;;;2.72;;
63005;SDS011;53704;52.532;6.426;2023-07-29T08:44:30;7.43;;;2.30;;
63005;SDS011;53704;52.532;6.426;2023-07-29T08:47:05;3.10;;;2.40;;
63005;SDS011;53704;52.532;6.426;2023-07-29T08:49:31;2.20;;;1.90;;
63005;SDS011;53704;52.532;6.426;2023-07-29T08:51:58;4.25;;;2.28;;
63005;SDS011;53704;52.532;6.426;2023-07-29T08:54:24;3.67;;;2.55;;
63005;SDS011;53704;52.532;6.426;2023-07-29T08:56:50;4.80;;;2.10;;
63005;SDS011;53704;52.532;6.426;2023-07-29T08:59:15;2.95;;;1.70;;
63005;SDS011;53704;52.532;6.426;2023-07-29T09:01:42;3.78;;;2.03;;
63005;SDS011;53704;52.532;6.426;2023-07-29T09:04:08;6.07;;;1.95;;
63005;SDS011;53704;52.532;6.426;2023-07-29T09:06:34;1.80;;;1.70;;
63005;SDS011;53704;52.532;6.426;2023-07-29T09:09:00;3.92;;;1.80;;
63005;SDS011;53704;52.532;6.426;2023-07-29T09:11:27;7.72;;;2.35;;
63005;SDS011;53704;52.532;6.426;2023-07-29T09:13:53;7.93;;;1.75;;
63005;SDS011;53704;52.532;6.426;2023-07-29T09:16:22;3.08;;;1.65;;
63005;SDS011;53704;52.532;6.426;2023-07-29T09:18:51;5.30;;;2.13;;
63005;SDS011;53704;52.532;6.426;2023-07-29T09:21:17;3.17;;;2.40;;
63005;SDS011;53704;52.532;6.426;2023-07-29T09:23:47;7.32;;;2.22;;
63005;SDS011;53704;52.532;6.426;2023-07-29T09:26:18;2.88;;;1.98;;
63005;SDS011;53704;52.532;6.426;2023-07-29T09:28:51;3.55;;;1.85;;
63005;SDS011;53704;52.532;6.426;2023-07-29T09:31:24;3.92;;;2.10;;
63005;SDS011;53704;52.532;6.426;2023-07-29T09:33:57;2.60;;;2.05;;
63005;SDS011;53704;52.532;6.426;2023-07-29T09:36:27;4.75;;;2.67;;
63005;SDS011;53704;52.532;6.426;2023-07-29T09:38:56;3.10;;;2.10;;
63005;SDS011;53704;52.532;6.426;2023-07-29T09:41:23;7.60;;;2.47;;
63005;SDS011;53704;52.532;6.426;2023-07-29T09:43:56;6.97;;;3.00;;
63005;SDS011;53704;52.532;6.426;2023-07-29T09:46:23;3.58;;;2.72;;
63005;SDS011;53704;52.532;6.426;2023-07-29T09:48:52;11.23;;;3.22;;
63005;SDS011;53704;52.532;6.426;2023-07-29T09:51:20;12.63;;;3.05;;
63005;SDS011;53704;52.532;6.426;2023-07-29T09:53:46;6.25;;;3.30;;
63005;SDS011;53704;52.532;6.426;2023-07-29T09:56:13;3.60;;;2.95;;
63005;SDS011;53704;52.532;6.426;2023-07-29T09:58:40;3.28;;;2.92;;
63005;SDS011;53704;52.532;6.426;2023-07-29T10:01:08;10.57;;;3.55;;
63005;SDS011;53704;52.532;6.426;2023-07-29T10:03:34;4.45;;;3.47;;
63005;SDS011;53704;52.532;6.426;2023-07-29T10:06:04;2.92;;;2.72;;
63005;SDS011;53704;52.532;6.426;2023-07-29T10:08:31;7.70;;;2.88;;
63005;SDS011;53704;52.532;6.426;2023-07-29T10:11:07;5.78;;;2.88;;
63005;SDS011;53704;52.532;6.426;2023-07-29T10:13:36;6.15;;;2.67;;
63005;SDS011;53704;52.532;6.426;2023-07-29T10:16:03;3.33;;;2.97;;
63005;SDS011;53704;52.532;6.426;2023-07-29T10:18:30;6.65;;;2.55;;
63005;SDS011;53704;52.532;6.426;2023-07-29T10:20:57;6.45;;;2.42;;
63005;SDS011;53704;52.532;6.426;2023-07-29T10:23:24;6.10;;;2.50;;
63005;SDS011;53704;52.532;6.426;2023-07-29T10:26:04;7.78;;;2.67;;
63005;SDS011;53704;52.532;6.426;2023-07-29T10:28:30;3.38;;;2.63;;
63005;SDS011;53704;52.532;6.426;2023-07-29T10:30:57;3.38;;;2.33;;
63005;SDS011;53704;52.532;6.426;2023-07-29T10:33:23;4.25;;;2.35;;
63005;SDS011;53704;52.532;6.426;2023-07-29T10:35:49;7.97;;;2.25;;
63005;SDS011;53704;52.532;6.426;2023-07-29T10:38:16;2.47;;;1.90;;
63005;SDS011;53704;52.532;6.426;2023-07-29T10:40:44;8.02;;;2.30;;
63005;SDS011;53704;52.532;6.426;2023-07-29T10:43:19;6.18;;;2.90;;
63005;SDS011;53704;52.532;6.426;2023-07-29T10:45:58;2.95;;;2.28;;
63005;SDS011;53704;52.532;6.426;2023-07-29T10:48:44;3.58;;;2.22;;
63005;SDS011;53704;52.532;6.426;2023-07-29T10:51:34;4.88;;;2.58;;
63005;SDS011;53704;52.532;6.426;2023-07-29T10:54:02;4.75;;;2.13;;
63005;SDS011;53704;52.532;6.426;2023-07-29T10:58:56;6.95;;;2.38;;
63005;SDS011;53704;52.532;6.426;2023-07-29T11:01:26;2.60;;;2.35;;
63005;SDS011;53704;52.532;6.426;2023-07-29T11:15:00;4.40;;;2.13;;
63005;SDS011;53704;52.532;6.426;2023-07-29T11:17:29;5.13;;;2.40;;
63005;SDS011;53704;52.532;6.426;2023-07-29T11:19:57;12.40;;;2.47;;
63005;SDS011;53704;52.532;6.426;2023-07-29T11:22:25;2.58;;;1.75;;
63005;SDS011;53704;52.532;6.426;2023-07-29T11:24:51;8.07;;;2.35;;
63005;SDS011;53704;52.532;6.426;2023-07-29T11:27:16;20.45;;;3.25;;
63005;SDS011;53704;52.532;6.426;2023-07-29T11:29:42;5.60;;;3.08;;
63005;SDS011;53704;52.532;6.426;2023-07-29T11:32:08;2.28;;;2.03;;
63005;SDS011;53704;52.532;6.426;2023-07-29T11:34:34;8.88;;;2.13;;
63005;SDS011;53704;52.532;6.426;2023-07-29T11:37:00;17.90;;;2.40;;
63005;SDS011;53704;52.532;6.426;2023-07-29T11:39:25;10.82;;;2.42;;
63005;SDS011;53704;52.532;6.426;2023-07-29T11:41:51;3.22;;;1.73;;
63005;SDS011;53704;52.532;6.426;2023-07-29T11:44:16;4.13;;;1.75;;
63005;SDS011;53704;52.532;6.426;2023-07-29T11:46:43;5.53;;;1.83;;
63005;SDS011;53704;52.532;6.426;2023-07-29T11:49:09;7.15;;;1.92;;
63005;SDS011;53704;52.532;6.426;2023-07-29T11:51:34;4.60;;;1.90;;
63005;SDS011;53704;52.532;6.426;2023-07-29T11:54:00;5.43;;;1.77;;
63005;SDS011;53704;52.532;6.426;2023-07-29T11:56:26;6.47;;;1.83;;
63005;SDS011;53704;52.532;6.426;2023-07-29T11:58:51;4.82;;;1.95;;
63005;SDS011;53704;52.532;6.426;2023-07-29T12:01:19;2.17;;;1.77;;
63005;SDS011;53704;52.532;6.426;2023-07-29T12:03:44;2.03;;;1.50;;
63005;SDS011;53704;52.532;6.426;2023-07-29T12:06:10;12.68;;;2.45;;
63005;SDS011;53704;52.532;6.426;2023-07-29T12:08:36;17.25;;;2.60;;
63005;SDS011;53704;52.532;6.426;2023-07-29T12:11:01;16.65;;;2.47;;
63005;SDS011;53704;52.532;6.426;2023-07-29T12:13:27;2.45;;;1.80;;
63005;SDS011;53704;52.532;6.426;2023-07-29T12:15:52;2.03;;;1.85;;
63005;SDS011;53704;52.532;6.426;2023-07-29T12:18:29;6.00;;;1.80;;
63005;SDS011;53704;52.532;6.426;2023-07-29T12:20:56;3.65;;;2.00;;
63005;SDS011;53704;52.532;6.426;2023-07-29T12:23:24;7.15;;;2.00;;
63005;SDS011;53704;52.532;6.426;2023-07-29T12:25:51;4.97;;;1.42;;
63005;SDS011;53704;52.532;6.426;2023-07-29T12:28:24;2.72;;;1.60;;
63005;SDS011;53704;52.532;6.426;2023-07-29T12:30:54;3.00;;;1.60;;
63005;SDS011;53704;52.532;6.426;2023-07-29T12:36:20;2.17;;;1.42;;
63005;SDS011;53704;52.532;6.426;2023-07-29T12:38:46;4.25;;;1.50;;
63005;SDS011;53704;52.532;6.426;2023-07-29T12:41:13;1.30;;;1.30;;
63005;SDS011;53704;52.532;6.426;2023-07-29T12:43:38;2.65;;;1.40;;
63005;SDS011;53704;52.532;6.426;2023-07-29T12:46:04;1.45;;;1.10;;
63005;SDS011;53704;52.532;6.426;2023-07-29T12:48:29;3.17;;;1.23;;
63005;SDS011;53704;52.532;6.426;2023-07-29T12:50:54;2.10;;;1.20;;
63005;SDS011;53704;52.532;6.426;2023-07-29T12:53:20;2.78;;;1.20;;
63005;SDS011;53704;52.532;6.426;2023-07-29T12:55:45;2.90;;;1.20;;
63005;SDS011;53704;52.532;6.426;2023-07-29T12:58:11;7.50;;;2.25;;
63005;SDS011;53704;52.532;6.426;2023-07-29T13:00:36;1.33;;;1.23;;
63005;SDS011;53704;52.532;6.426;2023-07-29T13:03:03;2.50;;;1.20;;
63005;SDS011;53704;52.532;6.426;2023-07-29T13:05:30;3.72;;;1.30;;
63005;SDS011;53704;52.532;6.426;2023-07-29T13:07:56;2.92;;;1.17;;
63005;SDS011;53704;52.532;6.426;2023-07-29T13:10:21;1.15;;;1.13;;
63005;SDS011;53704;52.532;6.426;2023-07-29T13:12:46;1.58;;;1.48;;
63005;SDS011;53704;52.532;6.426;2023-07-29T13:15:12;1.70;;;1.60;;
63005;SDS011;53704;52.532;6.426;2023-07-29T13:17:37;2.42;;;1.38;;
63005;SDS011;53704;52.532;6.426;2023-07-29T13:20:03;1.55;;;0.98;;
63005;SDS011;53704;52.532;6.426;2023-07-29T13:22:29;0.70;;;0.70;;
63005;SDS011;53704;52.532;6.426;2023-07-29T13:24:54;0.75;;;0.75;;
63005;SDS011;53704;52.532;6.426;2023-07-29T13:27:20;1.90;;;0.68;;
63005;SDS011;53704;52.532;6.426;2023-07-29T13:29:45;0.85;;;0.80;;
63005;SDS011;53704;52.532;6.426;2023-07-29T13:32:11;6.25;;;0.80;;
63005;SDS011;53704;52.532;6.426;2023-07-29T13:34:37;0.63;;;0.63;;
63005;SDS011;53704;52.532;6.426;2023-07-29T13:37:05;3.55;;;0.77;;
63005;SDS011;53704;52.532;6.426;2023-07-29T13:39:31;0.88;;;0.70;;
63005;SDS011;53704;52.532;6.426;2023-07-29T13:41:56;2.25;;;1.02;;
63005;SDS011;53704;52.532;6.426;2023-07-29T13:44:22;2.28;;;0.60;;
63005;SDS011;53704;52.532;6.426;2023-07-29T13:46:47;2.28;;;1.00;;
63005;SDS011;53704;52.532;6.426;2023-07-29T13:49:13;0.88;;;0.88;;
63005;SDS011;53704;52.532;6.426;2023-07-29T13:51:38;0.73;;;0.73;;
63005;SDS011;53704;52.532;6.426;2023-07-29T13:54:04;0.50;;;0.50;;
63005;SDS011;53704;52.532;6.426;2023-07-29T13:56:29;0.60;;;0.60;;
63005;SDS011;53704;52.532;6.426;2023-07-29T13:58:54;5.53;;;0.65;;
63005;SDS011;53704;52.532;6.426;2023-07-29T14:01:20;0.70;;;0.70;;
63005;SDS011;53704;52.532;6.426;2023-07-29T14:03:45;0.93;;;0.70;;
63005;SDS011;53704;52.532;6.426;2023-07-29T14:06:11;0.50;;;0.50;;
63005;SDS011;53704;52.532;6.426;2023-07-29T14:08:36;0.32;;;0.32;;
63005;SDS011;53704;52.532;6.426;2023-07-29T14:11:01;1.85;;;0.60;;
63005;SDS011;53704;52.532;6.426;2023-07-29T14:13:27;0.38;;;0.38;;
63005;SDS011;53704;52.532;6.426;2023-07-29T14:15:52;2.42;;;0.40;;
63005;SDS011;53704;52.532;6.426;2023-07-29T14:18:18;0.57;;;0.57;;
63005;SDS011;53704;52.532;6.426;2023-07-29T14:20:43;3.22;;;0.60;;
63005;SDS011;53704;52.532;6.426;2023-07-29T14:23:09;0.50;;;0.50;;
63005;SDS011;53704;52.532;6.426;2023-07-29T14:25:34;0.60;;;0.60;;
63005;SDS011;53704;52.532;6.426;2023-07-29T14:27:59;3.08;;;0.55;;
63005;SDS011;53704;52.532;6.426;2023-07-29T14:30:25;3.25;;;0.82;;
63005;SDS011;53704;52.532;6.426;2023-07-29T14:32:50;2.13;;;0.60;;
63005;SDS011;53704;52.532;6.426;2023-07-29T14:35:16;2.08;;;0.70;;
63005;SDS011;53704;52.532;6.426;2023-07-29T14:37:41;1.85;;;0.95;;
63005;SDS011;53704;52.532;6.426;2023-07-29T14:40:07;13.93;;;1.40;;
63005;SDS011;53704;52.532;6.426;2023-07-29T14:42:32;3.25;;;1.20;;
63005;SDS011;53704;52.532;6.426;2023-07-29T14:44:58;14.52;;;1.40;;
63005;SDS011;53704;52.532;6.426;2023-07-29T14:47:23;3.13;;;0.90;;
63005;SDS011;53704;52.532;6.426;2023-07-29T14:49:49;0.70;;;0.70;;
63005;SDS011;53704;52.532;6.426;2023-07-29T14:52:14;0.98;;;0.98;;
63005;SDS011;53704;52.532;6.426;2023-07-29T14:54:40;6.32;;;1.27;;
63005;SDS011;53704;52.532;6.426;2023-07-29T14:57:05;1.30;;;1.25;;
63005;SDS011;53704;52.532;6.426;2023-07-29T14:59:31;1.73;;;1.20;;
63005;SDS011;53704;52.532;6.426;2023-07-29T15:01:57;1.88;;;1.13;;
63005;SDS011;53704;52.532;6.426;2023-07-29T15:04:23;1.17;;;1.10;;
63005;SDS011;53704;52.532;6.426;2023-07-29T15:06:49;1.52;;;1.42;;
63005;SDS011;53704;52.532;6.426;2023-07-29T15:09:14;1.10;;;1.10;;